Yao, Japan
Current Conditions -  °F | °C
As of 11:00 AM on Monday 24 Nov 2014 (Local Time) from RJOO Reporting Station
Scattered Clouds Scattered Clouds  
Wind Chill: 59°   Ceiling: Unl
Heat Index: 59°   Visibility: 6mi
Dew Point: 39°   Wind: 5mph
Humidity: 48%   Direction: 60°ENE
Pressure: 30.18"   Gusts: NA
Location:  34.63°N, 135.58°E
Report Text: RJOO 240200Z 06004KT 020V110 9999 FEW040 SCT080 15/04 Q1022
Loading
Personal Weather Stations






























Interactive Weather Map New forecast layout! Learn more

10-Day Weather Forecast

Advertisements
Track Severe Weather on mobile